createdAt,value
2019-03-01T00:01:07.304Z,6.03
2019-03-01T00:03:37.441Z,5.94
2019-03-01T00:06:17.754Z,5.97
2019-03-01T00:09:07.770Z,5.98
2019-03-01T00:12:00.336Z,5.85
2019-03-01T00:14:57.681Z,5.94
2019-03-01T00:17:35.244Z,5.90
2019-03-01T00:20:24.938Z,5.86
2019-03-01T00:23:14.390Z,5.88
2019-03-01T00:26:06.602Z,5.91
2019-03-01T00:28:46.889Z,5.94
2019-03-01T00:31:36.382Z,5.93
2019-03-01T00:34:25.989Z,5.91
2019-03-01T00:37:05.767Z,5.90
2019-03-01T00:39:52.494Z,5.96
2019-03-01T00:42:46.471Z,5.99
2019-03-01T00:45:14.960Z,5.97
2019-03-01T00:47:43.436Z,5.97
2019-03-01T00:50:12.102Z,6.00
2019-03-01T00:52:40.572Z,5.99
2019-03-01T00:55:09.906Z,6.01
2019-03-01T00:57:38.359Z,5.93
2019-03-01T01:00:21.990Z,5.97
2019-03-01T01:02:50.455Z,5.97
2019-03-01T01:05:18.959Z,5.94
2019-03-01T01:07:47.604Z,6.03
2019-03-01T01:10:16.090Z,6.03
2019-03-01T01:12:44.566Z,6.04
2019-03-01T01:15:13.058Z,6.01
2019-03-01T01:17:41.528Z,6.08
2019-03-01T01:20:10.593Z,6.10
2019-03-01T01:22:39.057Z,6.10
2019-03-01T01:25:07.713Z,6.12
2019-03-01T01:27:36.179Z,6.09
2019-03-01T01:30:07.660Z,6.03
2019-03-01T01:32:36.145Z,5.98
2019-03-01T01:35:05.384Z,6.01
2019-03-01T01:37:33.868Z,5.93
2019-03-01T01:40:02.365Z,6.05
2019-03-01T01:42:30.819Z,6.04
2019-03-01T01:44:59.316Z,5.94
2019-03-01T01:47:27.805Z,5.90
2019-03-01T01:49:56.320Z,5.92
2019-03-01T01:52:24.782Z,6.03
2019-03-01T01:54:53.300Z,6.06
2019-03-01T01:57:21.779Z,6.05
2019-03-01T01:59:50.275Z,5.98
2019-03-01T02:02:18.745Z,5.93
2019-03-01T02:04:47.240Z,5.97
2019-03-01T02:07:15.707Z,5.92
2019-03-01T02:09:44.192Z,6.01
2019-03-01T02:12:12.691Z,6.08
2019-03-01T02:14:41.158Z,6.08
2019-03-01T02:17:09.671Z,6.13
2019-03-01T02:19:38.132Z,6.16
2019-03-01T02:22:06.631Z,6.20
2019-03-01T02:24:35.114Z,6.18
2019-03-01T02:27:24.721Z,6.04
2019-03-01T02:29:53.531Z,6.02
2019-03-01T02:32:34.168Z,6.02
2019-03-01T02:35:02.632Z,6.07
2019-03-01T02:37:31.170Z,6.08
2019-03-01T02:40:01.336Z,6.03
2019-03-01T02:42:29.814Z,6.08
2019-03-01T02:44:58.323Z,6.11
2019-03-01T02:47:26.780Z,6.06
2019-03-01T02:49:55.292Z,6.03
2019-03-01T02:52:23.770Z,6.05
2019-03-01T02:54:52.272Z,6.08
2019-03-01T02:57:20.740Z,6.05
2019-03-01T02:59:49.255Z,6.02
2019-03-01T03:02:17.736Z,6.05
2019-03-01T03:04:46.234Z,6.12
2019-03-01T03:07:16.369Z,6.18
2019-03-01T03:09:44.832Z,6.26
2019-03-01T03:12:13.502Z,6.28
2019-03-01T03:14:41.978Z,6.30
2019-03-01T03:17:10.475Z,6.29
2019-03-01T03:19:38.945Z,6.32
2019-03-01T03:22:07.467Z,6.14
2019-03-01T03:24:35.966Z,6.12
2019-03-01T03:27:04.461Z,6.09
2019-03-01T03:29:32.937Z,6.24
2019-03-01T03:32:01.469Z,6.18
2019-03-01T03:34:29.985Z,6.13
2019-03-01T03:36:58.493Z,6.15
2019-03-01T03:39:26.984Z,6.28
2019-03-01T03:41:55.456Z,6.32
2019-03-01T03:44:24.010Z,6.21
2019-03-01T03:46:52.502Z,6.22
2019-03-01T03:49:20.994Z,6.18
2019-03-01T03:51:49.458Z,6.27
2019-03-01T03:54:18.217Z,6.22
2019-03-01T03:56:46.977Z,6.23
2019-03-01T03:59:15.636Z,6.21
2019-03-01T04:01:44.102Z,6.25
2019-03-01T04:04:12.602Z,6.34
2019-03-01T04:06:41.242Z,6.39
2019-03-01T04:09:09.820Z,6.39
2019-03-01T04:11:38.310Z,6.40
2019-03-01T04:14:06.816Z,6.45
2019-03-01T04:16:35.297Z,6.43
2019-03-01T04:19:03.819Z,6.43
2019-03-01T04:21:32.283Z,6.41
2019-03-01T04:24:00.781Z,6.41
2019-03-01T04:26:29.253Z,6.41
2019-03-01T04:28:57.741Z,6.44
2019-03-01T04:31:26.218Z,6.36
2019-03-01T04:33:54.716Z,6.39
2019-03-01T04:36:23.181Z,6.42
2019-03-01T04:38:51.690Z,6.39
2019-03-01T04:41:20.174Z,6.43
2019-03-01T04:43:48.669Z,6.41
2019-03-01T04:46:17.139Z,6.52
2019-03-01T04:48:45.632Z,6.53
2019-03-01T04:51:14.098Z,6.41
2019-03-01T04:53:42.594Z,6.42
2019-03-01T04:56:11.067Z,6.45
2019-03-01T04:58:39.554Z,6.47
2019-03-01T05:01:08.031Z,6.47
2019-03-01T05:03:36.524Z,6.45
2019-03-01T05:06:05.060Z,6.46
2019-03-01T05:08:33.546Z,6.50
2019-03-01T05:11:02.021Z,6.43
2019-03-01T05:13:30.504Z,6.44
2019-03-01T05:15:58.985Z,6.42
2019-03-01T05:18:27.490Z,6.53
2019-03-01T05:20:55.970Z,6.51
2019-03-01T05:23:24.451Z,6.46
2019-03-01T05:25:52.936Z,6.53
2019-03-01T05:28:21.396Z,6.49
2019-03-01T05:30:49.921Z,6.46
2019-03-01T05:33:18.397Z,6.30
2019-03-01T05:35:46.877Z,6.42
2019-03-01T05:38:21.738Z,6.50
2019-03-01T05:40:45.566Z,6.53
2019-03-01T05:43:14.030Z,6.54
2019-03-01T05:45:42.555Z,6.50
2019-03-01T05:48:11.027Z,6.50
2019-03-01T05:50:39.523Z,6.53
2019-03-01T05:53:07.986Z,6.40
2019-03-01T05:55:36.494Z,6.62
2019-03-01T05:58:31.913Z,6.64
2019-03-01T06:01:15.224Z,6.56
2019-03-01T06:04:05.299Z,6.50
2019-03-01T06:06:42.320Z,6.60
2019-03-01T06:09:13.841Z,6.50
2019-03-01T06:11:47.967Z,6.44
2019-03-01T06:14:36.094Z,6.48
2019-03-01T06:17:13.522Z,6.44
2019-03-01T06:19:53.712Z,6.43
2019-03-01T06:22:40.074Z,6.37
2019-03-01T06:25:14.222Z,6.38
2019-03-01T06:27:54.222Z,6.50
2019-03-01T06:30:52.067Z,6.45
2019-03-01T06:33:40.561Z,6.48
2019-03-01T06:36:20.786Z,6.61
2019-03-01T06:38:56.754Z,6.66
2019-03-01T06:42:01.792Z,6.49
2019-03-01T06:45:06.736Z,6.62
2019-03-01T06:47:48.382Z,6.67
2019-03-01T06:50:18.231Z,6.57
2019-03-01T06:52:46.703Z,6.54
2019-03-01T06:55:30.317Z,6.49
2019-03-01T06:57:58.791Z,6.57
2019-03-01T07:00:28.273Z,6.68
2019-03-01T07:02:58.690Z,6.66
2019-03-01T07:05:27.236Z,6.52
2019-03-01T07:07:55.729Z,6.56
2019-03-01T07:10:24.216Z,6.54
2019-03-01T07:12:52.761Z,6.57
2019-03-01T07:15:21.306Z,6.56
2019-03-01T07:17:49.781Z,6.66
2019-03-01T07:20:18.248Z,6.64
2019-03-01T07:22:46.752Z,6.58
2019-03-01T07:25:15.230Z,6.54
2019-03-01T07:27:43.717Z,6.59
2019-03-01T07:30:12.469Z,6.78
2019-03-01T07:32:40.953Z,6.74
2019-03-01T07:35:10.265Z,6.72
2019-03-01T07:37:38.766Z,6.81
2019-03-01T07:40:09.776Z,6.80
2019-03-01T07:42:38.273Z,6.81
2019-03-01T07:45:12.482Z,6.84
2019-03-01T07:47:40.969Z,6.74
2019-03-01T07:50:12.149Z,6.90
2019-03-01T07:52:40.706Z,6.87
2019-03-01T07:55:11.684Z,6.92
2019-03-01T07:57:40.196Z,6.78
2019-03-01T08:00:17.910Z,6.79
2019-03-01T08:02:46.405Z,6.87
2019-03-01T08:05:16.313Z,6.90
2019-03-01T08:07:55.305Z,6.97
2019-03-01T08:10:20.693Z,7.02
2019-03-01T08:12:47.536Z,7.05
2019-03-01T08:15:17.332Z,6.87
2019-03-01T08:17:45.827Z,7.04
2019-03-01T08:20:16.412Z,7.02
2019-03-01T08:22:49.097Z,6.90
2019-03-01T08:25:22.834Z,6.86
2019-03-01T08:27:46.449Z,6.95
2019-03-01T08:30:17.002Z,6.96
2019-03-01T08:32:45.675Z,6.95
2019-03-01T08:35:18.712Z,7.00
2019-03-01T08:37:49.834Z,7.02
2019-03-01T08:40:18.220Z,6.98
2019-03-01T08:42:46.777Z,6.86
2019-03-01T08:45:20.268Z,7.10
2019-03-01T08:47:49.157Z,7.05
2019-03-01T08:50:18.290Z,7.09
2019-03-01T08:52:47.054Z,7.08
2019-03-01T08:55:18.233Z,7.15
2019-03-01T08:57:46.726Z,7.18
2019-03-01T09:00:18.171Z,7.07
2019-03-01T09:02:46.637Z,7.20
2019-03-01T09:05:15.116Z,7.17
2019-03-01T09:07:43.642Z,7.16
2019-03-01T09:10:14.741Z,7.20
2019-03-01T09:12:43.227Z,7.11
2019-03-01T09:15:13.938Z,7.07
2019-03-01T09:17:42.441Z,7.02
2019-03-01T09:20:15.918Z,7.11
2019-03-01T09:22:44.805Z,7.06
2019-03-01T09:25:15.489Z,7.12
2019-03-01T09:27:43.980Z,7.16
2019-03-01T09:30:21.548Z,7.05
2019-03-01T09:32:50.045Z,7.08
2019-03-01T09:35:39.605Z,6.98
2019-03-01T09:38:08.698Z,7.04
2019-03-01T09:40:37.157Z,7.11
2019-03-01T09:43:05.789Z,7.02
2019-03-01T09:45:36.434Z,6.98
2019-03-01T09:48:05.201Z,6.98
2019-03-01T09:50:34.585Z,6.91
2019-03-01T09:53:04.158Z,6.86
2019-03-01T09:55:34.856Z,6.95
2019-03-01T09:58:03.034Z,7.00
2019-03-01T10:00:37.496Z,6.99
2019-03-01T10:03:06.007Z,6.97
2019-03-01T10:05:34.496Z,7.03
2019-03-01T10:08:03.002Z,6.99
2019-03-01T10:10:35.309Z,7.06
2019-03-01T10:13:04.099Z,7.04
2019-03-01T10:15:32.651Z,6.88
2019-03-01T10:18:01.169Z,6.97
2019-03-01T10:20:29.647Z,6.97
2019-03-01T10:22:58.156Z,6.88
2019-03-01T10:25:26.704Z,6.89
2019-03-01T10:27:55.193Z,7.06
2019-03-01T10:30:24.998Z,7.08
2019-03-01T10:32:53.484Z,7.00
2019-03-01T10:35:22.031Z,6.91
2019-03-01T10:37:50.556Z,6.98
2019-03-01T10:40:23.620Z,6.95
2019-03-01T10:42:52.129Z,6.89
2019-03-01T10:45:25.926Z,6.83
2019-03-01T10:47:54.409Z,6.94
2019-03-01T10:50:22.897Z,7.00
2019-03-01T10:52:51.483Z,6.95
2019-03-01T10:55:20.705Z,6.95
2019-03-01T10:57:49.939Z,6.90
2019-03-01T11:00:28.591Z,6.88
2019-03-01T11:02:58.052Z,6.78
2019-03-01T11:05:27.475Z,6.70
2019-03-01T11:07:56.908Z,6.68
2019-03-01T11:10:39.408Z,6.74
2019-03-01T11:13:13.420Z,6.66
2019-03-01T11:15:41.908Z,6.59
2019-03-01T11:18:10.485Z,6.52
2019-03-01T11:20:38.978Z,6.50
2019-03-01T11:23:07.460Z,6.49
2019-03-01T11:25:35.937Z,6.47
2019-03-01T11:28:04.635Z,6.57
2019-03-01T11:30:34.264Z,6.50
2019-03-01T11:33:02.758Z,6.44
2019-03-01T11:35:31.227Z,6.37
2019-03-01T11:37:59.712Z,6.34
2019-03-01T11:40:31.226Z,6.42
2019-03-01T11:43:00.154Z,6.41
2019-03-01T11:45:28.702Z,6.52
2019-03-01T11:47:57.267Z,6.46
2019-03-01T11:50:25.850Z,6.61
2019-03-01T11:52:54.391Z,6.62
2019-03-01T11:55:22.947Z,6.61
2019-03-01T11:57:51.691Z,6.62
2019-03-01T12:00:27.956Z,6.69
2019-03-01T12:02:56.472Z,6.64
2019-03-01T12:05:24.966Z,6.59
2019-03-01T12:07:53.738Z,6.57
2019-03-01T12:10:28.508Z,6.51
2019-03-01T12:12:56.993Z,6.45
2019-03-01T12:15:25.472Z,6.43
2019-03-01T12:17:53.954Z,6.27
2019-03-01T12:20:30.493Z,6.36
2019-03-01T12:22:58.969Z,6.33
2019-03-01T12:25:27.543Z,6.39
2019-03-01T12:27:56.026Z,6.51
2019-03-01T12:30:25.753Z,6.48
2019-03-01T12:32:54.226Z,6.50
2019-03-01T12:35:22.706Z,6.50
2019-03-01T12:37:51.189Z,6.49
2019-03-01T12:40:25.032Z,6.46
2019-03-01T12:42:53.500Z,6.50
2019-03-01T12:45:21.999Z,6.58
2019-03-01T12:47:50.542Z,6.50
2019-03-01T12:50:19.202Z,6.59
2019-03-01T12:52:49.460Z,6.48
2019-03-01T12:55:22.806Z,6.53
2019-03-01T12:57:51.289Z,6.58
2019-03-01T13:00:22.770Z,6.42
2019-03-01T13:02:51.236Z,6.43
2019-03-01T13:05:19.807Z,6.38
2019-03-01T13:07:48.302Z,6.20
2019-03-01T13:10:19.636Z,6.18
2019-03-01T13:12:48.115Z,6.25
2019-03-01T13:15:16.640Z,6.17
2019-03-01T13:17:45.110Z,5.98
2019-03-01T13:20:16.757Z,6.00
2019-03-01T13:22:45.232Z,6.01
2019-03-01T13:25:15.605Z,6.03
2019-03-01T13:27:44.376Z,5.73
2019-03-01T13:30:21.190Z,5.88
2019-03-01T13:32:49.667Z,5.93
2019-03-01T13:35:22.378Z,5.85
2019-03-01T13:37:52.039Z,5.85
2019-03-01T13:40:24.431Z,5.70
2019-03-01T13:42:53.822Z,5.66
2019-03-01T13:45:26.350Z,5.73
2019-03-01T13:47:54.829Z,5.72
2019-03-01T13:50:23.567Z,5.73
2019-03-01T13:52:52.050Z,5.65
2019-03-01T13:55:22.066Z,5.81
2019-03-01T13:57:51.359Z,5.86
2019-03-01T14:00:21.555Z,5.91
2019-03-01T14:02:50.162Z,5.99
2019-03-01T14:05:19.215Z,5.98
2019-03-01T14:07:48.755Z,5.96
2019-03-01T14:10:22.916Z,6.05
2019-03-01T14:12:51.549Z,6.10
2019-03-01T14:15:20.043Z,6.21
2019-03-01T14:17:48.524Z,6.26
2019-03-01T14:20:21.139Z,6.27
2019-03-01T14:22:49.821Z,6.31
2019-03-01T14:25:18.572Z,6.39
2019-03-01T14:27:47.204Z,6.19
2019-03-01T14:30:20.489Z,6.36
2019-03-01T14:32:49.021Z,6.39
2019-03-01T14:35:20.121Z,6.32
2019-03-01T14:37:47.779Z,6.38
2019-03-01T14:40:22.584Z,6.32
2019-03-01T14:42:49.962Z,6.43
2019-03-01T14:45:29.533Z,6.44
2019-03-01T14:47:58.036Z,6.39
2019-03-01T14:50:30.131Z,6.46
2019-03-01T14:52:58.934Z,6.40
2019-03-01T14:55:46.088Z,6.37
2019-03-01T14:58:25.866Z,6.30
2019-03-01T15:01:00.534Z,6.37
2019-03-01T15:03:30.808Z,6.31
2019-03-01T15:05:59.315Z,6.40
2019-03-01T15:08:27.769Z,6.42
2019-03-01T15:10:57.198Z,6.44
2019-03-01T15:13:27.774Z,6.47
2019-03-01T15:15:56.151Z,6.45
2019-03-01T15:18:25.129Z,6.44
2019-03-01T15:20:56.333Z,6.40
2019-03-01T15:23:24.855Z,6.37
2019-03-01T15:25:53.492Z,6.44
2019-03-01T15:28:22.667Z,6.50
2019-03-01T15:30:51.137Z,6.45
2019-03-01T15:33:19.630Z,6.45
2019-03-01T15:35:48.104Z,6.37
2019-03-01T15:38:16.600Z,6.34
2019-03-01T15:40:45.071Z,6.37
2019-03-01T15:43:13.553Z,6.35
2019-03-01T15:45:42.010Z,6.39
2019-03-01T15:48:10.511Z,6.58
2019-03-01T15:50:39.051Z,6.42
2019-03-01T15:53:07.635Z,6.35
2019-03-01T15:55:36.103Z,6.37
2019-03-01T15:58:04.589Z,6.41
2019-03-01T16:00:33.070Z,6.39
2019-03-01T16:03:01.553Z,6.31
2019-03-01T16:05:30.012Z,6.25
2019-03-01T16:07:58.498Z,6.26
2019-03-01T16:10:26.963Z,6.24
2019-03-01T16:12:55.470Z,6.23
2019-03-01T16:15:23.944Z,6.24
2019-03-01T16:17:52.427Z,6.21
2019-03-01T16:20:25.135Z,6.23
2019-03-01T16:22:55.055Z,6.10
2019-03-01T16:25:23.650Z,6.13
2019-03-01T16:27:54.289Z,6.15
2019-03-01T16:30:22.328Z,6.16
2019-03-01T16:32:50.892Z,6.16
2019-03-01T16:35:20.595Z,6.21
2019-03-01T16:37:53.471Z,6.02
2019-03-01T16:40:21.979Z,6.04
2019-03-01T16:42:54.292Z,6.06
2019-03-01T16:45:21.870Z,6.01
2019-03-01T16:47:50.569Z,6.02
2019-03-01T16:50:20.758Z,5.94
2019-03-01T16:52:49.242Z,5.90
2019-03-01T16:55:24.446Z,5.86
2019-03-01T16:57:53.640Z,5.86
2019-03-01T17:00:23.963Z,5.91
2019-03-01T17:03:09.564Z,5.88
2019-03-01T17:05:38.786Z,5.85
2019-03-01T17:08:08.090Z,5.83
2019-03-01T17:10:36.565Z,5.80
2019-03-01T17:13:05.049Z,5.80
2019-03-01T17:15:33.507Z,5.83
2019-03-01T17:18:01.988Z,5.79
2019-03-01T17:20:30.453Z,5.83
2019-03-01T17:22:59.750Z,5.81
2019-03-01T17:25:29.126Z,5.73
2019-03-01T17:27:57.623Z,5.81
2019-03-01T17:30:26.827Z,5.82
2019-03-01T17:32:55.319Z,5.78
2019-03-01T17:35:23.808Z,5.74
2019-03-01T17:37:52.273Z,5.74
2019-03-01T17:40:21.319Z,5.78
2019-03-01T17:42:52.949Z,5.76
2019-03-01T17:45:24.432Z,5.72
2019-03-01T17:47:52.907Z,5.76
2019-03-01T17:50:21.390Z,5.73
2019-03-01T17:52:49.844Z,5.62
2019-03-01T17:55:19.781Z,5.64
2019-03-01T17:57:50.194Z,5.60
2019-03-01T18:00:25.429Z,5.64
2019-03-01T18:02:52.199Z,5.60
2019-03-01T18:05:21.821Z,5.59
2019-03-01T18:07:50.300Z,5.58
2019-03-01T18:10:18.795Z,5.58
2019-03-01T18:12:47.256Z,5.47
2019-03-01T18:15:16.779Z,5.41
2019-03-01T18:17:45.235Z,5.49
2019-03-01T18:20:14.562Z,5.51
2019-03-01T18:22:43.097Z,5.44
2019-03-01T18:25:13.237Z,5.36
2019-03-01T18:27:41.717Z,5.34
2019-03-01T18:30:21.896Z,5.35
2019-03-01T18:32:50.460Z,5.30
2019-03-01T18:35:19.118Z,5.32
2019-03-01T18:37:47.588Z,5.28
2019-03-01T18:40:16.786Z,5.24
2019-03-01T18:42:45.987Z,5.17
2019-03-01T18:45:19.007Z,5.20
2019-03-01T18:47:47.533Z,5.24
2019-03-01T18:50:22.171Z,5.19
2019-03-01T18:52:53.390Z,5.13
2019-03-01T18:55:20.850Z,5.09
2019-03-01T18:57:49.308Z,5.02
2019-03-01T19:00:32.462Z,4.98
2019-03-01T19:03:01.037Z,4.84
2019-03-01T19:05:31.837Z,4.91
2019-03-01T19:08:04.229Z,4.95
2019-03-01T19:10:30.933Z,4.96
2019-03-01T19:12:59.394Z,4.92
2019-03-01T19:15:28.027Z,4.85
2019-03-01T19:17:56.870Z,4.79
2019-03-01T19:20:30.929Z,4.76
2019-03-01T19:22:59.389Z,4.79
2019-03-01T19:25:27.874Z,4.67
2019-03-01T19:27:56.361Z,4.70
2019-03-01T19:30:25.915Z,4.68
2019-03-01T19:32:54.389Z,4.78
2019-03-01T19:35:28.496Z,4.76
2019-03-01T19:37:53.146Z,4.69
2019-03-01T19:40:22.913Z,4.68
2019-03-01T19:42:51.490Z,4.69
2019-03-01T19:45:20.514Z,4.70
2019-03-01T19:47:49.097Z,4.69
2019-03-01T19:50:26.001Z,4.70
2019-03-01T19:52:54.815Z,4.79
2019-03-01T19:55:24.851Z,4.67
2019-03-01T19:57:55.187Z,4.69
2019-03-01T20:00:28.474Z,4.72
2019-03-01T20:02:56.968Z,4.80
2019-03-01T20:05:33.317Z,4.83
2019-03-01T20:08:04.765Z,4.81
2019-03-01T20:10:33.266Z,4.68
2019-03-01T20:13:01.939Z,4.72
2019-03-01T20:15:31.371Z,4.78
2019-03-01T20:17:59.854Z,4.77
2019-03-01T20:20:29.843Z,4.76
2019-03-01T20:22:59.585Z,4.76
2019-03-01T20:25:28.061Z,4.79
2019-03-01T20:27:56.565Z,4.73
2019-03-01T20:30:30.637Z,4.75
2019-03-01T20:33:00.215Z,4.73
2019-03-01T20:35:28.734Z,4.73
2019-03-01T20:38:00.334Z,4.74
2019-03-01T20:40:28.318Z,4.78
2019-03-01T20:42:59.912Z,4.74
2019-03-01T20:45:31.672Z,4.75
2019-03-01T20:48:00.151Z,4.79
2019-03-01T20:50:30.126Z,4.74
2019-03-01T20:52:58.614Z,4.73
2019-03-01T20:55:27.104Z,4.70
2019-03-01T20:57:55.606Z,4.75
2019-03-01T21:00:29.846Z,4.74
2019-03-01T21:02:58.194Z,4.77
2019-03-01T21:05:28.860Z,4.67
2019-03-01T21:07:56.880Z,4.69
2019-03-01T21:10:32.931Z,4.72
2019-03-01T21:13:01.416Z,4.59
2019-03-01T21:15:29.897Z,4.68
2019-03-01T21:17:58.689Z,4.74
2019-03-01T21:20:27.350Z,4.65
2019-03-01T21:22:55.854Z,4.73
2019-03-01T21:25:25.308Z,4.70
2019-03-01T21:27:53.886Z,4.75
2019-03-01T21:30:24.963Z,4.75
2019-03-01T21:32:53.501Z,4.72
2019-03-01T21:35:22.948Z,4.75
2019-03-01T21:37:52.208Z,4.74
2019-03-01T21:40:20.846Z,4.76
2019-03-01T21:42:52.751Z,4.62
2019-03-01T21:45:24.616Z,4.57
2019-03-01T21:47:53.249Z,4.70
2019-03-01T21:50:26.805Z,4.68
2019-03-01T21:52:55.331Z,4.72
2019-03-01T21:55:28.617Z,4.65
2019-03-01T21:57:55.930Z,4.69
2019-03-01T22:00:31.479Z,4.65
2019-03-01T22:03:00.163Z,4.72
2019-03-01T22:05:28.695Z,4.59
2019-03-01T22:07:57.166Z,4.64
2019-03-01T22:10:25.647Z,4.68
2019-03-01T22:12:56.782Z,4.69
2019-03-01T22:15:28.563Z,4.75
2019-03-01T22:17:57.101Z,4.74
2019-03-01T22:20:26.342Z,4.71
2019-03-01T22:22:54.797Z,4.72
2019-03-01T22:25:23.475Z,4.64
2019-03-01T22:27:51.931Z,4.56
2019-03-01T22:30:23.868Z,4.63
2019-03-01T22:32:52.286Z,4.67
2019-03-01T22:35:20.817Z,4.56
2019-03-01T22:37:49.298Z,4.62
2019-03-01T22:40:17.834Z,4.54
2019-03-01T22:42:49.754Z,4.65
2019-03-01T22:45:17.528Z,4.67
2019-03-01T22:47:46.193Z,4.65
2019-03-01T22:50:16.437Z,4.71
2019-03-01T22:52:45.235Z,4.73
2019-03-01T22:55:18.120Z,4.56
2019-03-01T22:57:46.595Z,4.57
2019-03-01T23:00:48.032Z,4.62
2019-03-01T23:03:18.938Z,4.67
2019-03-01T23:05:47.712Z,4.63
2019-03-01T23:08:16.340Z,4.64
2019-03-01T23:10:44.987Z,4.64
2019-03-01T23:13:17.088Z,4.61
2019-03-01T23:15:44.577Z,4.65
2019-03-01T23:18:13.260Z,4.67
2019-03-01T23:20:42.427Z,4.67
2019-03-01T23:23:10.898Z,4.67
2019-03-01T23:25:39.380Z,4.66
2019-03-01T23:28:09.186Z,4.57
2019-03-01T23:30:37.880Z,4.54
2019-03-01T23:33:06.562Z,4.47
2019-03-01T23:35:35.063Z,4.42
2019-03-01T23:38:03.516Z,4.48
2019-03-01T23:40:32.705Z,4.51
2019-03-01T23:43:02.201Z,4.47
2019-03-01T23:45:30.691Z,4.55
2019-03-01T23:47:59.166Z,4.43
2019-03-01T23:50:27.666Z,4.45
2019-03-01T23:52:58.896Z,4.47
2019-03-01T23:55:27.216Z,4.47
2019-03-01T23:57:56.718Z,4.45
